Clover Bottom, Missouri
Current Conditions -  °F | °C
As of 2:55 PM on Sunday 23 Nov 2014 (Local Time) from KFYG Reporting Station
Light Rain Light Rain  
Wind Chill: 55°   Ceiling: Unl
Heat Index: 55°   Visibility: 4mi
Dew Point: 54°   Wind: 7mph
Humidity: 94%   Direction: 130°SE
Pressure: 29.34"   Gusts: NA
Location:  38.5374°N, 91.0388°W
Report Text: KFYG 232055Z AUTO 13006KT 4SM -RA SCT009 13/12 A2934 RMK AO2
Loading
Personal Weather Stations






























Interactive Weather Map New forecast layout! Learn more

10-Day Weather Forecast

Advertisements
Track Severe Weather on mobile